aviador You're here:

KDTO Decoded Metar

DENTON in TX, USA
Report Time2017-05-26 12:53:00
UTC Time2017-05-26 13:10:29
Flight Rules vfr VFR
Wind190° at 15 Gusting to 21 kt
W.Decomp.*RWY 18: 14.9 kt HW 1.6 kt RCW
W.Rank190° ranks 6
Current wind is above 190° avg. (10.4)
Visibility9999 m
Phenomena:N/A
Clouds:Few 018 Hf
Expected CloudBase > 1,200 ft AGL from Temp-Dew spread
CeilingNone
Temp25°C (ISA +11)
Dew Point22°C (83% RH)
AAT24.2°C
QNH1007 hPa
Density Alt2,500 ft
Elevation643 ft
Report Wrong Elevation
Raw Report
KDTO 261253Z 19015G21KT 10SM FEW018 25/22 A2973 RMK AO2 SLP058
T02500217=

Extra information for KDTO:More info

Metar Taf Metar & Taf Last 4 Metars F.Rules Stats Wind Profile Meteogram Temp Stats Airport Information Weather charts Add Link Nearby VenuesMetar ALERT Operation Metar Decoded Social comments

AIRNAV info for KDTO